Fort Mill, South Carolina
Current Conditions -  °F | °C
As of 6:14 AM on Saturday 25 Oct 2014 (Local Time) from KUZA Reporting Station
Haze Haze  
Wind Chill: 40°   Ceiling: Unl
Heat Index: 40°   Visibility: 3mi
Dew Point: 38°   Wind: 0mph
Humidity: 93%   Direction: NA
Pressure: 30.02"   Gusts: NA
Location:  35.01°N, 80.94°W
Report Text: KUZA 251014Z AUTO 00000KT 3SM BR CLR 04/03 A3002 RMK AO2 T00440033
Loading
Personal Weather Stations






























Interactive Weather Map New forecast layout! Learn more

10-Day Weather Forecast

Advertisements
Track Severe Weather on mobile